sensor_id;sensor_type;location;lat;lon;timestamp;P1;durP1;ratioP1;P2;durP2;ratioP2
74904;SDS011;63465;50.862;6.220;2023-01-30T00:01:06;25.53;;;11.73;;
74904;SDS011;63465;50.862;6.220;2023-01-30T00:03:38;27.00;;;13.07;;
74904;SDS011;63465;50.862;6.220;2023-01-30T00:06:06;27.67;;;11.90;;
74904;SDS011;63465;50.862;6.220;2023-01-30T00:08:33;28.57;;;11.67;;
74904;SDS011;63465;50.862;6.220;2023-01-30T00:11:02;26.17;;;12.20;;
74904;SDS011;63465;50.862;6.220;2023-01-30T00:13:29;19.50;;;10.03;;
74904;SDS011;63465;50.862;6.220;2023-01-30T00:15:56;27.27;;;11.47;;
74904;SDS011;63465;50.862;6.220;2023-01-30T00:18:22;20.17;;;10.70;;
74904;SDS011;63465;50.862;6.220;2023-01-30T00:20:53;22.40;;;10.87;;
74904;SDS011;63465;50.862;6.220;2023-01-30T00:23:22;21.33;;;9.97;;
74904;SDS011;63465;50.862;6.220;2023-01-30T00:25:49;23.63;;;11.30;;
74904;SDS011;63465;50.862;6.220;2023-01-30T00:28:15;24.33;;;11.07;;
74904;SDS011;63465;50.862;6.220;2023-01-30T00:30:42;22.97;;;11.30;;
74904;SDS011;63465;50.862;6.220;2023-01-30T00:33:09;31.13;;;12.50;;
74904;SDS011;63465;50.862;6.220;2023-01-30T00:35:36;28.57;;;11.33;;
74904;SDS011;63465;50.862;6.220;2023-01-30T00:38:03;23.07;;;10.73;;
74904;SDS011;63465;50.862;6.220;2023-01-30T00:40:31;27.87;;;11.70;;
74904;SDS011;63465;50.862;6.220;2023-01-30T00:42:58;22.93;;;11.03;;
74904;SDS011;63465;50.862;6.220;2023-01-30T00:45:42;30.33;;;10.93;;
74904;SDS011;63465;50.862;6.220;2023-01-30T00:48:27;21.10;;;10.87;;
74904;SDS011;63465;50.862;6.220;2023-01-30T00:50:54;22.13;;;11.13;;
74904;SDS011;63465;50.862;6.220;2023-01-30T00:53:21;25.93;;;12.17;;
74904;SDS011;63465;50.862;6.220;2023-01-30T00:55:50;20.60;;;10.40;;
74904;SDS011;63465;50.862;6.220;2023-01-30T00:58:27;24.07;;;12.60;;
74904;SDS011;63465;50.862;6.220;2023-01-30T01:00:54;28.97;;;11.00;;
74904;SDS011;63465;50.862;6.220;2023-01-30T01:03:22;24.40;;;12.00;;
74904;SDS011;63465;50.862;6.220;2023-01-30T01:05:48;22.83;;;11.53;;
74904;SDS011;63465;50.862;6.220;2023-01-30T01:08:15;25.23;;;10.60;;
74904;SDS011;63465;50.862;6.220;2023-01-30T01:10:42;22.83;;;11.27;;
74904;SDS011;63465;50.862;6.220;2023-01-30T01:13:10;26.90;;;11.30;;
74904;SDS011;63465;50.862;6.220;2023-01-30T01:15:37;26.57;;;11.50;;
74904;SDS011;63465;50.862;6.220;2023-01-30T01:18:04;26.67;;;11.20;;
74904;SDS011;63465;50.862;6.220;2023-01-30T01:20:31;28.20;;;10.77;;
74904;SDS011;63465;50.862;6.220;2023-01-30T01:22:57;28.17;;;12.00;;
74904;SDS011;63465;50.862;6.220;2023-01-30T01:25:24;28.57;;;11.93;;
74904;SDS011;63465;50.862;6.220;2023-01-30T01:27:51;25.37;;;12.20;;
74904;SDS011;63465;50.862;6.220;2023-01-30T01:30:21;26.47;;;11.80;;
74904;SDS011;63465;50.862;6.220;2023-01-30T01:32:47;28.47;;;11.87;;
74904;SDS011;63465;50.862;6.220;2023-01-30T01:35:14;24.90;;;12.67;;
74904;SDS011;63465;50.862;6.220;2023-01-30T01:37:41;29.27;;;13.07;;
74904;SDS011;63465;50.862;6.220;2023-01-30T01:40:09;28.13;;;13.20;;
74904;SDS011;63465;50.862;6.220;2023-01-30T01:42:59;20.40;;;10.50;;
74904;SDS011;63465;50.862;6.220;2023-01-30T01:45:28;24.03;;;11.57;;
74904;SDS011;63465;50.862;6.220;2023-01-30T01:47:57;31.70;;;11.13;;
74904;SDS011;63465;50.862;6.220;2023-01-30T01:50:27;20.83;;;10.80;;
74904;SDS011;63465;50.862;6.220;2023-01-30T01:53:04;31.03;;;13.13;;
74904;SDS011;63465;50.862;6.220;2023-01-30T01:55:31;26.73;;;11.17;;
74904;SDS011;63465;50.862;6.220;2023-01-30T01:58:00;29.03;;;12.00;;
74904;SDS011;63465;50.862;6.220;2023-01-30T02:00:33;33.30;;;13.43;;
74904;SDS011;63465;50.862;6.220;2023-01-30T02:03:00;26.10;;;11.63;;
74904;SDS011;63465;50.862;6.220;2023-01-30T02:05:32;28.27;;;12.80;;
74904;SDS011;63465;50.862;6.220;2023-01-30T02:08:03;22.93;;;11.20;;
74904;SDS011;63465;50.862;6.220;2023-01-30T02:10:36;27.83;;;13.30;;
74904;SDS011;63465;50.862;6.220;2023-01-30T02:13:10;21.27;;;10.43;;
74904;SDS011;63465;50.862;6.220;2023-01-30T02:15:38;25.23;;;11.80;;
74904;SDS011;63465;50.862;6.220;2023-01-30T02:18:05;26.80;;;12.27;;
74904;SDS011;63465;50.862;6.220;2023-01-30T02:20:39;26.33;;;12.20;;
74904;SDS011;63465;50.862;6.220;2023-01-30T02:29:21;26.53;;;11.10;;
74904;SDS011;63465;50.862;6.220;2023-01-30T02:32:03;27.87;;;12.33;;
74904;SDS011;63465;50.862;6.220;2023-01-30T02:34:38;24.83;;;12.13;;
74904;SDS011;63465;50.862;6.220;2023-01-30T02:37:15;22.90;;;11.63;;
74904;SDS011;63465;50.862;6.220;2023-01-30T02:39:55;36.10;;;12.17;;
74904;SDS011;63465;50.862;6.220;2023-01-30T02:42:36;28.53;;;12.90;;
74904;SDS011;63465;50.862;6.220;2023-01-30T02:45:11;24.63;;;11.17;;
74904;SDS011;63465;50.862;6.220;2023-01-30T02:47:48;25.10;;;11.17;;
74904;SDS011;63465;50.862;6.220;2023-01-30T02:50:23;29.33;;;12.00;;
74904;SDS011;63465;50.862;6.220;2023-01-30T02:52:54;28.13;;;11.50;;
74904;SDS011;63465;50.862;6.220;2023-01-30T02:55:24;25.43;;;12.17;;
74904;SDS011;63465;50.862;6.220;2023-01-30T02:57:54;22.37;;;10.90;;
74904;SDS011;63465;50.862;6.220;2023-01-30T03:00:22;22.90;;;10.70;;
74904;SDS011;63465;50.862;6.220;2023-01-30T03:05:56;23.60;;;11.43;;
74904;SDS011;63465;50.862;6.220;2023-01-30T03:08:37;29.57;;;11.70;;
74904;SDS011;63465;50.862;6.220;2023-01-30T03:11:11;25.43;;;11.77;;
74904;SDS011;63465;50.862;6.220;2023-01-30T03:13:43;26.87;;;11.00;;
74904;SDS011;63465;50.862;6.220;2023-01-30T03:16:19;25.37;;;11.50;;
74904;SDS011;63465;50.862;6.220;2023-01-30T03:18:50;23.50;;;10.70;;
74904;SDS011;63465;50.862;6.220;2023-01-30T03:21:18;25.83;;;11.23;;
74904;SDS011;63465;50.862;6.220;2023-01-30T03:23:45;25.70;;;10.30;;
74904;SDS011;63465;50.862;6.220;2023-01-30T03:26:13;25.03;;;11.27;;
74904;SDS011;63465;50.862;6.220;2023-01-30T03:28:44;23.30;;;10.90;;
74904;SDS011;63465;50.862;6.220;2023-01-30T03:31:14;19.47;;;9.70;;
74904;SDS011;63465;50.862;6.220;2023-01-30T03:33:41;22.70;;;11.03;;
74904;SDS011;63465;50.862;6.220;2023-01-30T03:36:08;23.17;;;11.23;;
74904;SDS011;63465;50.862;6.220;2023-01-30T03:38:37;17.37;;;8.97;;
74904;SDS011;63465;50.862;6.220;2023-01-30T03:41:04;25.40;;;10.57;;
74904;SDS011;63465;50.862;6.220;2023-01-30T03:43:32;27.10;;;11.50;;
74904;SDS011;63465;50.862;6.220;2023-01-30T03:46:01;25.33;;;11.10;;
74904;SDS011;63465;50.862;6.220;2023-01-30T03:48:28;27.10;;;11.37;;
74904;SDS011;63465;50.862;6.220;2023-01-30T03:50:55;16.73;;;9.67;;
74904;SDS011;63465;50.862;6.220;2023-01-30T03:53:22;35.87;;;11.53;;
74904;SDS011;63465;50.862;6.220;2023-01-30T03:55:50;24.93;;;10.77;;
74904;SDS011;63465;50.862;6.220;2023-01-30T03:58:22;21.43;;;11.10;;
74904;SDS011;63465;50.862;6.220;2023-01-30T04:00:49;28.70;;;11.50;;
74904;SDS011;63465;50.862;6.220;2023-01-30T04:03:16;17.57;;;10.17;;
74904;SDS011;63465;50.862;6.220;2023-01-30T04:05:43;21.83;;;10.70;;
74904;SDS011;63465;50.862;6.220;2023-01-30T04:08:11;25.10;;;10.70;;
74904;SDS011;63465;50.862;6.220;2023-01-30T04:10:37;21.63;;;10.17;;
74904;SDS011;63465;50.862;6.220;2023-01-30T04:13:06;27.13;;;11.17;;
74904;SDS011;63465;50.862;6.220;2023-01-30T04:15:32;23.70;;;11.37;;
74904;SDS011;63465;50.862;6.220;2023-01-30T04:18:18;23.80;;;11.33;;
74904;SDS011;63465;50.862;6.220;2023-01-30T04:20:49;26.83;;;12.27;;
74904;SDS011;63465;50.862;6.220;2023-01-30T04:23:22;24.27;;;11.87;;
74904;SDS011;63465;50.862;6.220;2023-01-30T04:25:49;20.37;;;11.30;;
74904;SDS011;63465;50.862;6.220;2023-01-30T04:28:20;22.63;;;10.77;;
74904;SDS011;63465;50.862;6.220;2023-01-30T04:30:46;22.13;;;11.90;;
74904;SDS011;63465;50.862;6.220;2023-01-30T04:33:35;21.93;;;10.80;;
74904;SDS011;63465;50.862;6.220;2023-01-30T04:36:05;26.87;;;12.33;;
74904;SDS011;63465;50.862;6.220;2023-01-30T04:38:34;22.67;;;11.20;;
74904;SDS011;63465;50.862;6.220;2023-01-30T04:41:03;22.30;;;10.90;;
74904;SDS011;63465;50.862;6.220;2023-01-30T04:43:34;25.10;;;10.10;;
74904;SDS011;63465;50.862;6.220;2023-01-30T04:46:17;26.30;;;11.43;;
74904;SDS011;63465;50.862;6.220;2023-01-30T04:48:44;24.87;;;12.47;;
74904;SDS011;63465;50.862;6.220;2023-01-30T04:51:10;27.00;;;12.33;;
74904;SDS011;63465;50.862;6.220;2023-01-30T04:53:37;22.50;;;12.10;;
74904;SDS011;63465;50.862;6.220;2023-01-30T04:56:04;25.23;;;11.90;;
74904;SDS011;63465;50.862;6.220;2023-01-30T04:58:33;29.10;;;13.37;;
74904;SDS011;63465;50.862;6.220;2023-01-30T05:01:13;24.47;;;11.37;;
74904;SDS011;63465;50.862;6.220;2023-01-30T05:03:42;25.80;;;12.30;;
74904;SDS011;63465;50.862;6.220;2023-01-30T05:06:09;19.63;;;9.93;;
74904;SDS011;63465;50.862;6.220;2023-01-30T05:08:35;24.27;;;12.00;;
74904;SDS011;63465;50.862;6.220;2023-01-30T05:11:02;24.10;;;11.87;;
74904;SDS011;63465;50.862;6.220;2023-01-30T05:13:29;24.30;;;12.30;;
74904;SDS011;63465;50.862;6.220;2023-01-30T05:15:57;22.97;;;11.57;;
74904;SDS011;63465;50.862;6.220;2023-01-30T05:18:23;25.10;;;10.50;;
74904;SDS011;63465;50.862;6.220;2023-01-30T05:20:50;29.43;;;11.70;;
74904;SDS011;63465;50.862;6.220;2023-01-30T05:23:17;24.17;;;11.53;;
74904;SDS011;63465;50.862;6.220;2023-01-30T05:25:43;24.53;;;11.40;;
74904;SDS011;63465;50.862;6.220;2023-01-30T05:28:10;21.57;;;10.30;;
74904;SDS011;63465;50.862;6.220;2023-01-30T05:30:37;24.23;;;10.73;;
74904;SDS011;63465;50.862;6.220;2023-01-30T05:33:05;23.13;;;10.10;;
74904;SDS011;63465;50.862;6.220;2023-01-30T05:35:31;22.07;;;10.60;;
74904;SDS011;63465;50.862;6.220;2023-01-30T05:37:58;19.17;;;8.83;;
74904;SDS011;63465;50.862;6.220;2023-01-30T05:40:26;25.20;;;9.70;;
74904;SDS011;63465;50.862;6.220;2023-01-30T05:42:53;19.87;;;8.93;;
74904;SDS011;63465;50.862;6.220;2023-01-30T05:45:19;20.10;;;10.20;;
74904;SDS011;63465;50.862;6.220;2023-01-30T05:47:49;22.37;;;8.90;;
74904;SDS011;63465;50.862;6.220;2023-01-30T05:50:17;17.37;;;9.67;;
74904;SDS011;63465;50.862;6.220;2023-01-30T05:52:44;17.33;;;8.40;;
74904;SDS011;63465;50.862;6.220;2023-01-30T05:55:11;15.30;;;8.43;;
74904;SDS011;63465;50.862;6.220;2023-01-30T05:57:38;15.10;;;8.13;;
74904;SDS011;63465;50.862;6.220;2023-01-30T06:00:05;14.07;;;8.10;;
74904;SDS011;63465;50.862;6.220;2023-01-30T06:02:38;14.67;;;7.70;;
74904;SDS011;63465;50.862;6.220;2023-01-30T06:05:05;18.83;;;8.87;;
74904;SDS011;63465;50.862;6.220;2023-01-30T06:07:33;15.80;;;8.67;;
74904;SDS011;63465;50.862;6.220;2023-01-30T06:10:00;16.60;;;8.53;;
74904;SDS011;63465;50.862;6.220;2023-01-30T06:12:26;23.37;;;8.17;;
74904;SDS011;63465;50.862;6.220;2023-01-30T06:14:53;13.33;;;7.93;;
74904;SDS011;63465;50.862;6.220;2023-01-30T06:17:20;20.50;;;10.10;;
74904;SDS011;63465;50.862;6.220;2023-01-30T06:19:46;14.43;;;8.80;;
74904;SDS011;63465;50.862;6.220;2023-01-30T06:22:13;17.67;;;9.63;;
74904;SDS011;63465;50.862;6.220;2023-01-30T06:24:41;15.43;;;8.80;;
74904;SDS011;63465;50.862;6.220;2023-01-30T06:27:08;15.50;;;7.50;;
74904;SDS011;63465;50.862;6.220;2023-01-30T06:29:34;17.30;;;8.87;;
74904;SDS011;63465;50.862;6.220;2023-01-30T06:32:01;21.37;;;9.50;;
74904;SDS011;63465;50.862;6.220;2023-01-30T06:34:28;26.00;;;9.83;;
74904;SDS011;63465;50.862;6.220;2023-01-30T06:36:54;13.17;;;7.73;;
74904;SDS011;63465;50.862;6.220;2023-01-30T06:39:21;21.00;;;8.40;;
74904;SDS011;63465;50.862;6.220;2023-01-30T06:41:49;14.30;;;8.07;;
74904;SDS011;63465;50.862;6.220;2023-01-30T06:44:16;14.10;;;8.43;;
74904;SDS011;63465;50.862;6.220;2023-01-30T06:46:42;14.53;;;9.17;;
74904;SDS011;63465;50.862;6.220;2023-01-30T06:49:09;14.87;;;9.33;;
74904;SDS011;63465;50.862;6.220;2023-01-30T06:51:36;15.03;;;7.87;;
74904;SDS011;63465;50.862;6.220;2023-01-30T06:54:03;15.50;;;8.50;;
74904;SDS011;63465;50.862;6.220;2023-01-30T06:56:30;11.67;;;7.10;;
74904;SDS011;63465;50.862;6.220;2023-01-30T06:58:58;17.83;;;8.00;;
74904;SDS011;63465;50.862;6.220;2023-01-30T07:01:24;14.43;;;8.30;;
74904;SDS011;63465;50.862;6.220;2023-01-30T07:03:51;14.50;;;7.93;;
74904;SDS011;63465;50.862;6.220;2023-01-30T07:06:18;12.57;;;7.80;;
74904;SDS011;63465;50.862;6.220;2023-01-30T07:08:44;15.00;;;8.30;;
74904;SDS011;63465;50.862;6.220;2023-01-30T07:11:11;11.60;;;7.67;;
74904;SDS011;63465;50.862;6.220;2023-01-30T07:13:38;14.50;;;7.90;;
74904;SDS011;63465;50.862;6.220;2023-01-30T07:16:06;15.27;;;7.60;;
74904;SDS011;63465;50.862;6.220;2023-01-30T07:18:33;12.93;;;8.07;;
74904;SDS011;63465;50.862;6.220;2023-01-30T07:21:00;13.20;;;7.93;;
74904;SDS011;63465;50.862;6.220;2023-01-30T07:23:26;10.63;;;6.77;;
74904;SDS011;63465;50.862;6.220;2023-01-30T07:25:53;13.30;;;8.20;;
74904;SDS011;63465;50.862;6.220;2023-01-30T07:28:20;11.00;;;7.10;;
74904;SDS011;63465;50.862;6.220;2023-01-30T07:30:46;13.93;;;7.30;;
74904;SDS011;63465;50.862;6.220;2023-01-30T07:33:18;17.60;;;7.90;;
74904;SDS011;63465;50.862;6.220;2023-01-30T07:35:45;13.90;;;6.77;;
74904;SDS011;63465;50.862;6.220;2023-01-30T07:38:11;15.00;;;8.17;;
74904;SDS011;63465;50.862;6.220;2023-01-30T07:40:38;12.87;;;6.77;;
74904;SDS011;63465;50.862;6.220;2023-01-30T07:43:09;14.77;;;7.87;;
74904;SDS011;63465;50.862;6.220;2023-01-30T07:45:39;19.33;;;8.23;;
74904;SDS011;63465;50.862;6.220;2023-01-30T07:48:07;11.63;;;7.77;;
74904;SDS011;63465;50.862;6.220;2023-01-30T07:50:36;12.10;;;7.80;;
74904;SDS011;63465;50.862;6.220;2023-01-30T07:53:03;19.73;;;8.27;;
74904;SDS011;63465;50.862;6.220;2023-01-30T07:55:30;15.23;;;8.53;;
74904;SDS011;63465;50.862;6.220;2023-01-30T07:57:57;16.47;;;7.77;;
74904;SDS011;63465;50.862;6.220;2023-01-30T08:00:24;17.47;;;9.53;;
74904;SDS011;63465;50.862;6.220;2023-01-30T08:02:51;14.73;;;7.83;;
74904;SDS011;63465;50.862;6.220;2023-01-30T08:05:18;18.33;;;9.40;;
74904;SDS011;63465;50.862;6.220;2023-01-30T08:07:46;12.33;;;8.83;;
74904;SDS011;63465;50.862;6.220;2023-01-30T08:10:13;12.67;;;7.97;;
74904;SDS011;63465;50.862;6.220;2023-01-30T08:12:40;14.20;;;8.40;;
74904;SDS011;63465;50.862;6.220;2023-01-30T08:15:07;11.70;;;7.90;;
74904;SDS011;63465;50.862;6.220;2023-01-30T08:17:34;16.60;;;8.60;;
74904;SDS011;63465;50.862;6.220;2023-01-30T08:20:01;18.17;;;8.50;;
74904;SDS011;63465;50.862;6.220;2023-01-30T08:22:28;13.53;;;8.37;;
74904;SDS011;63465;50.862;6.220;2023-01-30T08:24:57;13.77;;;8.47;;
74904;SDS011;63465;50.862;6.220;2023-01-30T08:27:23;13.00;;;8.17;;
74904;SDS011;63465;50.862;6.220;2023-01-30T08:29:50;14.30;;;8.07;;
74904;SDS011;63465;50.862;6.220;2023-01-30T08:32:16;14.37;;;8.40;;
74904;SDS011;63465;50.862;6.220;2023-01-30T08:34:43;13.73;;;8.00;;
74904;SDS011;63465;50.862;6.220;2023-01-30T08:37:10;19.30;;;9.67;;
74904;SDS011;63465;50.862;6.220;2023-01-30T08:39:36;20.60;;;9.13;;
74904;SDS011;63465;50.862;6.220;2023-01-30T08:42:04;19.80;;;8.50;;
74904;SDS011;63465;50.862;6.220;2023-01-30T08:44:31;13.60;;;8.10;;
74904;SDS011;63465;50.862;6.220;2023-01-30T08:46:58;19.67;;;8.70;;
74904;SDS011;63465;50.862;6.220;2023-01-30T08:49:24;12.90;;;8.30;;
74904;SDS011;63465;50.862;6.220;2023-01-30T08:51:51;22.17;;;9.07;;
74904;SDS011;63465;50.862;6.220;2023-01-30T08:54:18;15.33;;;8.80;;
74904;SDS011;63465;50.862;6.220;2023-01-30T08:56:44;21.73;;;8.90;;
74904;SDS011;63465;50.862;6.220;2023-01-30T08:59:12;22.03;;;8.80;;
74904;SDS011;63465;50.862;6.220;2023-01-30T09:01:39;13.40;;;7.83;;
74904;SDS011;63465;50.862;6.220;2023-01-30T09:04:06;11.90;;;7.23;;
74904;SDS011;63465;50.862;6.220;2023-01-30T09:06:32;18.47;;;8.20;;
74904;SDS011;63465;50.862;6.220;2023-01-30T09:08:59;15.40;;;8.30;;
74904;SDS011;63465;50.862;6.220;2023-01-30T09:11:26;16.33;;;8.07;;
74904;SDS011;63465;50.862;6.220;2023-01-30T09:13:53;14.13;;;8.00;;
74904;SDS011;63465;50.862;6.220;2023-01-30T09:16:21;15.80;;;8.07;;
74904;SDS011;63465;50.862;6.220;2023-01-30T09:18:48;11.50;;;7.80;;
74904;SDS011;63465;50.862;6.220;2023-01-30T09:21:15;10.83;;;7.27;;
74904;SDS011;63465;50.862;6.220;2023-01-30T09:23:41;15.20;;;6.60;;
74904;SDS011;63465;50.862;6.220;2023-01-30T09:26:08;14.23;;;6.60;;
74904;SDS011;63465;50.862;6.220;2023-01-30T09:28:35;15.30;;;6.63;;
74904;SDS011;63465;50.862;6.220;2023-01-30T09:31:01;12.63;;;5.67;;
74904;SDS011;63465;50.862;6.220;2023-01-30T09:33:30;13.70;;;5.37;;
74904;SDS011;63465;50.862;6.220;2023-01-30T09:35:56;8.00;;;4.00;;
74904;SDS011;63465;50.862;6.220;2023-01-30T09:38:23;14.80;;;4.93;;
74904;SDS011;63465;50.862;6.220;2023-01-30T09:40:53;10.33;;;4.50;;
74904;SDS011;63465;50.862;6.220;2023-01-30T09:43:33;15.33;;;3.90;;
74904;SDS011;63465;50.862;6.220;2023-01-30T09:46:17;8.07;;;3.73;;
74904;SDS011;63465;50.862;6.220;2023-01-30T09:48:56;6.60;;;2.83;;
74904;SDS011;63465;50.862;6.220;2023-01-30T09:51:38;13.03;;;3.53;;
74904;SDS011;63465;50.862;6.220;2023-01-30T09:54:14;19.67;;;4.80;;
74904;SDS011;63465;50.862;6.220;2023-01-30T09:56:49;5.83;;;3.53;;
74904;SDS011;63465;50.862;6.220;2023-01-30T09:59:22;12.87;;;3.37;;
74904;SDS011;63465;50.862;6.220;2023-01-30T10:01:55;12.63;;;4.00;;
74904;SDS011;63465;50.862;6.220;2023-01-30T10:04:28;8.20;;;2.73;;
74904;SDS011;63465;50.862;6.220;2023-01-30T10:07:00;4.43;;;2.90;;
74904;SDS011;63465;50.862;6.220;2023-01-30T10:09:37;9.07;;;3.07;;
74904;SDS011;63465;50.862;6.220;2023-01-30T10:12:27;9.80;;;3.07;;
74904;SDS011;63465;50.862;6.220;2023-01-30T10:15:10;5.40;;;2.80;;
74904;SDS011;63465;50.862;6.220;2023-01-30T10:17:56;9.17;;;3.17;;
74904;SDS011;63465;50.862;6.220;2023-01-30T10:20:38;14.70;;;3.37;;
74904;SDS011;63465;50.862;6.220;2023-01-30T10:26:04;10.33;;;2.47;;
74904;SDS011;63465;50.862;6.220;2023-01-30T10:28:37;7.33;;;3.00;;
74904;SDS011;63465;50.862;6.220;2023-01-30T10:31:07;18.97;;;2.83;;
74904;SDS011;63465;50.862;6.220;2023-01-30T10:33:39;10.17;;;2.67;;
74904;SDS011;63465;50.862;6.220;2023-01-30T10:36:12;18.33;;;3.30;;
74904;SDS011;63465;50.862;6.220;2023-01-30T10:38:43;7.53;;;3.10;;
74904;SDS011;63465;50.862;6.220;2023-01-30T10:41:16;11.87;;;3.40;;
74904;SDS011;63465;50.862;6.220;2023-01-30T10:43:52;7.53;;;2.67;;
74904;SDS011;63465;50.862;6.220;2023-01-30T10:46:38;7.37;;;2.77;;
74904;SDS011;63465;50.862;6.220;2023-01-30T10:49:18;7.63;;;2.70;;
74904;SDS011;63465;50.862;6.220;2023-01-30T10:51:59;2.90;;;2.20;;
74904;SDS011;63465;50.862;6.220;2023-01-30T10:54:33;2.87;;;2.57;;
74904;SDS011;63465;50.862;6.220;2023-01-30T10:57:05;15.73;;;3.60;;
74904;SDS011;63465;50.862;6.220;2023-01-30T10:59:46;7.60;;;2.87;;
74904;SDS011;63465;50.862;6.220;2023-01-30T11:02:22;6.80;;;2.60;;
74904;SDS011;63465;50.862;6.220;2023-01-30T11:04:54;6.10;;;2.63;;
74904;SDS011;63465;50.862;6.220;2023-01-30T11:07:25;10.17;;;2.13;;
74904;SDS011;63465;50.862;6.220;2023-01-30T11:09:55;7.33;;;2.40;;
74904;SDS011;63465;50.862;6.220;2023-01-30T11:12:23;10.50;;;3.40;;
74904;SDS011;63465;50.862;6.220;2023-01-30T11:14:50;5.53;;;2.50;;
74904;SDS011;63465;50.862;6.220;2023-01-30T11:17:19;5.80;;;2.23;;
74904;SDS011;63465;50.862;6.220;2023-01-30T11:19:53;3.80;;;1.97;;
74904;SDS011;63465;50.862;6.220;2023-01-30T11:22:22;8.63;;;2.37;;
74904;SDS011;63465;50.862;6.220;2023-01-30T11:25:00;19.63;;;2.40;;
74904;SDS011;63465;50.862;6.220;2023-01-30T11:27:30;10.70;;;2.50;;
74904;SDS011;63465;50.862;6.220;2023-01-30T11:30:03;6.10;;;2.20;;
74904;SDS011;63465;50.862;6.220;2023-01-30T11:32:32;7.00;;;2.17;;
74904;SDS011;63465;50.862;6.220;2023-01-30T11:35:03;7.67;;;2.23;;
74904;SDS011;63465;50.862;6.220;2023-01-30T11:37:44;6.33;;;2.37;;
74904;SDS011;63465;50.862;6.220;2023-01-30T11:40:26;7.37;;;2.37;;
74904;SDS011;63465;50.862;6.220;2023-01-30T11:43:01;13.80;;;2.90;;
74904;SDS011;63465;50.862;6.220;2023-01-30T11:45:29;5.37;;;2.10;;
74904;SDS011;63465;50.862;6.220;2023-01-30T11:48:03;7.00;;;2.57;;
74904;SDS011;63465;50.862;6.220;2023-01-30T11:50:33;11.83;;;3.13;;
74904;SDS011;63465;50.862;6.220;2023-01-30T11:53:10;8.07;;;2.33;;
74904;SDS011;63465;50.862;6.220;2023-01-30T11:55:43;6.83;;;2.30;;
74904;SDS011;63465;50.862;6.220;2023-01-30T11:58:11;16.27;;;3.10;;
74904;SDS011;63465;50.862;6.220;2023-01-30T12:00:39;6.13;;;2.27;;
74904;SDS011;63465;50.862;6.220;2023-01-30T12:03:09;20.57;;;2.17;;
74904;SDS011;63465;50.862;6.220;2023-01-30T12:05:38;15.33;;;2.40;;
74904;SDS011;63465;50.862;6.220;2023-01-30T12:08:10;11.30;;;2.80;;
74904;SDS011;63465;50.862;6.220;2023-01-30T12:10:39;10.30;;;2.80;;
74904;SDS011;63465;50.862;6.220;2023-01-30T12:13:11;11.97;;;2.40;;
74904;SDS011;63465;50.862;6.220;2023-01-30T12:15:43;4.97;;;2.37;;
74904;SDS011;63465;50.862;6.220;2023-01-30T12:18:13;5.37;;;2.13;;
74904;SDS011;63465;50.862;6.220;2023-01-30T12:20:48;6.87;;;3.00;;
74904;SDS011;63465;50.862;6.220;2023-01-30T12:23:22;8.90;;;2.97;;
74904;SDS011;63465;50.862;6.220;2023-01-30T12:25:59;8.53;;;3.03;;
74904;SDS011;63465;50.862;6.220;2023-01-30T12:28:34;20.63;;;2.33;;
74904;SDS011;63465;50.862;6.220;2023-01-30T12:31:07;11.60;;;3.40;;
74904;SDS011;63465;50.862;6.220;2023-01-30T12:33:37;10.23;;;3.53;;
74904;SDS011;63465;50.862;6.220;2023-01-30T12:36:08;12.03;;;3.33;;
74904;SDS011;63465;50.862;6.220;2023-01-30T12:38:54;20.20;;;2.63;;
74904;SDS011;63465;50.862;6.220;2023-01-30T12:41:29;6.83;;;2.77;;
74904;SDS011;63465;50.862;6.220;2023-01-30T12:44:15;7.43;;;2.10;;
74904;SDS011;63465;50.862;6.220;2023-01-30T12:46:55;7.47;;;2.60;;
74904;SDS011;63465;50.862;6.220;2023-01-30T12:49:33;9.33;;;2.43;;
74904;SDS011;63465;50.862;6.220;2023-01-30T12:52:24;25.27;;;2.00;;
74904;SDS011;63465;50.862;6.220;2023-01-30T12:55:14;7.83;;;2.70;;
74904;SDS011;63465;50.862;6.220;2023-01-30T12:57:49;5.30;;;1.83;;
74904;SDS011;63465;50.862;6.220;2023-01-30T13:00:26;6.00;;;1.90;;
74904;SDS011;63465;50.862;6.220;2023-01-30T13:03:14;9.93;;;2.20;;
74904;SDS011;63465;50.862;6.220;2023-01-30T13:05:50;13.27;;;2.70;;
74904;SDS011;63465;50.862;6.220;2023-01-30T13:08:26;8.13;;;2.03;;
74904;SDS011;63465;50.862;6.220;2023-01-30T13:11:08;5.73;;;1.60;;
74904;SDS011;63465;50.862;6.220;2023-01-30T13:13:45;7.63;;;2.20;;
74904;SDS011;63465;50.862;6.220;2023-01-30T13:16:22;6.60;;;1.80;;
74904;SDS011;63465;50.862;6.220;2023-01-30T13:18:59;7.20;;;1.90;;
74904;SDS011;63465;50.862;6.220;2023-01-30T13:21:33;11.47;;;2.27;;
74904;SDS011;63465;50.862;6.220;2023-01-30T13:24:11;10.50;;;2.40;;
74904;SDS011;63465;50.862;6.220;2023-01-30T13:26:44;5.03;;;2.20;;
74904;SDS011;63465;50.862;6.220;2023-01-30T13:29:13;9.30;;;2.00;;
74904;SDS011;63465;50.862;6.220;2023-01-30T13:31:48;13.37;;;2.53;;
74904;SDS011;63465;50.862;6.220;2023-01-30T13:34:20;6.00;;;2.80;;
74904;SDS011;63465;50.862;6.220;2023-01-30T13:36:51;11.00;;;2.20;;
74904;SDS011;63465;50.862;6.220;2023-01-30T13:39:25;14.20;;;2.60;;
74904;SDS011;63465;50.862;6.220;2023-01-30T13:41:59;10.20;;;2.90;;
74904;SDS011;63465;50.862;6.220;2023-01-30T13:44:31;12.33;;;3.77;;
74904;SDS011;63465;50.862;6.220;2023-01-30T13:47:05;13.53;;;2.70;;
74904;SDS011;63465;50.862;6.220;2023-01-30T13:49:42;12.00;;;2.40;;
74904;SDS011;63465;50.862;6.220;2023-01-30T13:52:16;6.97;;;2.40;;
74904;SDS011;63465;50.862;6.220;2023-01-30T13:54:55;9.37;;;2.80;;
74904;SDS011;63465;50.862;6.220;2023-01-30T13:57:28;10.90;;;2.40;;
74904;SDS011;63465;50.862;6.220;2023-01-30T14:00:14;13.57;;;2.13;;
74904;SDS011;63465;50.862;6.220;2023-01-30T14:06:05;8.63;;;2.23;;
74904;SDS011;63465;50.862;6.220;2023-01-30T14:08:53;9.07;;;2.37;;
74904;SDS011;63465;50.862;6.220;2023-01-30T14:11:27;14.27;;;2.37;;
74904;SDS011;63465;50.862;6.220;2023-01-30T14:13:59;4.10;;;1.93;;
74904;SDS011;63465;50.862;6.220;2023-01-30T14:19:18;6.03;;;2.10;;
74904;SDS011;63465;50.862;6.220;2023-01-30T14:21:54;5.40;;;1.83;;
74904;SDS011;63465;50.862;6.220;2023-01-30T14:24:22;5.53;;;1.97;;
74904;SDS011;63465;50.862;6.220;2023-01-30T14:27:03;11.27;;;2.30;;
74904;SDS011;63465;50.862;6.220;2023-01-30T14:29:53;15.20;;;2.33;;
74904;SDS011;63465;50.862;6.220;2023-01-30T14:35:24;5.70;;;2.33;;
74904;SDS011;63465;50.862;6.220;2023-01-30T14:40:39;15.60;;;2.77;;
74904;SDS011;63465;50.862;6.220;2023-01-30T14:49:17;24.03;;;10.73;;
74904;SDS011;63465;50.862;6.220;2023-01-30T14:51:49;25.93;;;10.33;;
74904;SDS011;63465;50.862;6.220;2023-01-30T14:54:21;42.63;;;9.37;;
74904;SDS011;63465;50.862;6.220;2023-01-30T14:56:51;21.40;;;7.03;;
74904;SDS011;63465;50.862;6.220;2023-01-30T14:59:22;23.03;;;7.80;;
74904;SDS011;63465;50.862;6.220;2023-01-30T15:01:55;90.83;;;40.20;;
74904;SDS011;63465;50.862;6.220;2023-01-30T15:04:26;55.27;;;29.63;;
74904;SDS011;63465;50.862;6.220;2023-01-30T15:06:55;35.73;;;13.00;;
74904;SDS011;63465;50.862;6.220;2023-01-30T15:09:25;98.53;;;51.80;;
74904;SDS011;63465;50.862;6.220;2023-01-30T15:11:57;36.60;;;16.87;;
74904;SDS011;63465;50.862;6.220;2023-01-30T15:14:51;136.70;;;52.20;;
74904;SDS011;63465;50.862;6.220;2023-01-30T15:17:27;209.43;;;86.40;;
74904;SDS011;63465;50.862;6.220;2023-01-30T15:20:04;162.40;;;63.27;;
74904;SDS011;63465;50.862;6.220;2023-01-30T15:22:45;63.00;;;21.93;;